createdAt,value
2018-07-22T00:00:59.409Z,99.10
2018-07-22T00:03:29.311Z,99.30
2018-07-22T00:05:58.519Z,98.20
2018-07-22T00:08:28.385Z,99.40
2018-07-22T00:10:57.967Z,99.60
2018-07-22T00:13:27.279Z,99.80
2018-07-22T00:15:56.590Z,99.60
2018-07-22T00:18:26.668Z,99.20
2018-07-22T00:20:56.279Z,99.10
2018-07-22T00:23:25.516Z,98.70
2018-07-22T00:25:54.737Z,99.20
2018-07-22T00:28:24.704Z,99.50
2018-07-22T00:33:23.256Z,99.40
2018-07-22T00:35:53.021Z,99.60
2018-07-22T00:38:22.267Z,99.60
2018-07-22T00:40:51.810Z,99.50
2018-07-22T00:43:21.169Z,99.90
2018-07-22T00:45:50.402Z,99.90
2018-07-22T00:48:19.599Z,99.90
2018-07-22T00:50:51.843Z,99.90
2018-07-22T00:53:21.085Z,99.90
2018-07-22T00:55:50.552Z,99.90
2018-07-22T00:58:19.801Z,99.90
2018-07-22T01:00:49.129Z,99.40
2018-07-22T01:03:18.343Z,99.70
2018-07-22T01:05:48.149Z,99.70
2018-07-22T01:08:17.389Z,99.70
2018-07-22T01:10:47.544Z,99.70
2018-07-22T01:13:16.768Z,99.30
2018-07-22T01:15:45.983Z,99.60
2018-07-22T01:18:15.202Z,99.30
2018-07-22T01:20:44.584Z,99.80
2018-07-22T01:23:13.848Z,99.00
2018-07-22T01:25:43.107Z,99.70
2018-07-22T01:28:12.354Z,99.30
2018-07-22T01:30:41.758Z,99.20
2018-07-22T01:33:11.023Z,99.20
2018-07-22T01:38:09.015Z,98.70
2018-07-22T01:40:39.570Z,98.70
2018-07-22T01:43:09.770Z,98.70
2018-07-22T01:45:38.982Z,99.20
2018-07-22T01:48:08.207Z,99.10
2018-07-22T01:50:37.650Z,99.40
2018-07-22T01:53:06.887Z,98.80
2018-07-22T01:55:36.155Z,98.70
2018-07-22T01:58:05.428Z,98.80
2018-07-22T02:00:35.240Z,98.60
2018-07-22T02:03:04.487Z,98.80
2018-07-22T02:05:34.732Z,98.70
2018-07-22T02:08:03.938Z,99.20
2018-07-22T02:10:33.843Z,98.70
2018-07-22T02:13:03.102Z,98.40
2018-07-22T02:15:32.357Z,98.70
2018-07-22T02:18:01.594Z,98.90
2018-07-22T02:20:30.839Z,98.70
2018-07-22T02:23:00.050Z,97.60
2018-07-22T02:25:29.600Z,98.70
2018-07-22T02:27:58.846Z,98.70
2018-07-22T02:30:28.238Z,98.20
2018-07-22T02:32:57.450Z,97.90
2018-07-22T02:35:26.934Z,97.70
2018-07-22T02:37:56.117Z,97.30
2018-07-22T02:40:25.424Z,97.80
2018-07-22T02:42:54.903Z,97.40
2018-07-22T02:45:24.124Z,97.70
2018-07-22T02:47:53.364Z,97.90
2018-07-22T02:50:23.693Z,97.60
2018-07-22T02:52:53.059Z,97.50
2018-07-22T02:55:23.148Z,97.90
2018-07-22T02:57:52.762Z,97.20
2018-07-22T03:00:22.166Z,97.60
2018-07-22T03:02:51.375Z,97.70
2018-07-22T03:05:20.600Z,97.90
2018-07-22T03:07:49.905Z,97.50
2018-07-22T03:10:19.544Z,97.60
2018-07-22T03:12:48.872Z,97.30
2018-07-22T03:15:18.159Z,97.50
2018-07-22T03:17:47.438Z,97.20
2018-07-22T03:20:17.733Z,96.70
2018-07-22T03:22:46.975Z,96.90
2018-07-22T03:25:16.753Z,96.80
2018-07-22T03:27:45.964Z,96.90
2018-07-22T03:30:15.371Z,97.60
2018-07-22T03:32:44.617Z,97.70
2018-07-22T03:35:14.855Z,97.50
2018-07-22T03:37:44.069Z,96.50
2018-07-22T03:40:13.369Z,96.20
2018-07-22T03:42:42.673Z,97.00
2018-07-22T03:45:11.950Z,96.70
2018-07-22T03:47:41.300Z,96.70
2018-07-22T03:50:10.575Z,95.80
2018-07-22T03:52:39.798Z,96.10
2018-07-22T03:55:09.042Z,96.70
2018-07-22T03:57:38.273Z,96.50
2018-07-22T04:00:09.728Z,97.00
2018-07-22T04:02:38.951Z,95.90
2018-07-22T04:05:08.790Z,95.20
2018-07-22T04:07:38.018Z,95.00
2018-07-22T04:10:07.447Z,95.20
2018-07-22T04:12:36.689Z,95.10
2018-07-22T04:15:06.821Z,94.70
2018-07-22T04:17:36.128Z,94.60
2018-07-22T04:20:05.752Z,94.70
2018-07-22T04:22:35.225Z,94.80
2018-07-22T04:25:04.528Z,95.10
2018-07-22T04:27:33.753Z,94.70
2018-07-22T04:30:03.289Z,94.30
2018-07-22T04:32:32.582Z,93.60
2018-07-22T04:35:01.783Z,95.00
2018-07-22T04:37:31.105Z,94.00
2018-07-22T04:40:02.554Z,93.60
2018-07-22T04:42:31.783Z,93.50
2018-07-22T04:45:01.001Z,93.60
2018-07-22T04:47:30.259Z,94.30
2018-07-22T04:50:00.506Z,93.80
2018-07-22T04:54:58.467Z,93.30
2018-07-22T04:57:28.153Z,93.20
2018-07-22T04:59:59.422Z,91.90
2018-07-22T05:02:28.638Z,92.00
2018-07-22T05:04:57.854Z,93.00
2018-07-22T05:07:27.047Z,92.10
2018-07-22T05:09:56.375Z,92.60
2018-07-22T05:12:25.584Z,91.70
2018-07-22T05:14:55.447Z,91.40
2018-07-22T05:17:24.734Z,89.90
2018-07-22T05:20:13.021Z,90.40
2018-07-22T05:22:43.568Z,90.90
2018-07-22T05:25:12.740Z,91.10
2018-07-22T05:27:42.056Z,89.40
2018-07-22T05:30:11.426Z,90.30
2018-07-22T05:32:40.764Z,87.40
2018-07-22T05:35:09.930Z,85.80
2018-07-22T05:37:39.195Z,85.10
2018-07-22T05:40:08.500Z,85.80
2018-07-22T05:42:37.795Z,82.10
2018-07-22T05:45:07.048Z,83.20
2018-07-22T05:47:38.162Z,83.10
2018-07-22T05:50:07.806Z,81.40
2018-07-22T05:52:37.059Z,81.50
2018-07-22T05:55:06.492Z,82.80
2018-07-22T05:57:35.953Z,80.60
2018-07-22T06:00:06.915Z,82.40
2018-07-22T06:02:36.410Z,78.80
2018-07-22T06:05:06.453Z,79.80
2018-07-22T06:07:35.688Z,82.00
2018-07-22T06:10:05.894Z,81.80
2018-07-22T06:12:35.190Z,80.40
2018-07-22T06:15:05.290Z,82.20
2018-07-22T06:17:34.632Z,74.80
2018-07-22T06:20:04.648Z,80.40
2018-07-22T06:22:33.860Z,77.90
2018-07-22T06:25:03.289Z,73.60
2018-07-22T06:27:33.454Z,73.00
2018-07-22T06:30:03.144Z,70.30
2018-07-22T06:32:32.572Z,73.30
2018-07-22T06:35:01.757Z,66.60
2018-07-22T06:37:31.036Z,71.20
2018-07-22T06:40:00.433Z,69.00
2018-07-22T06:42:30.607Z,67.40
2018-07-22T06:45:00.693Z,61.40
2018-07-22T06:47:30.013Z,66.70
2018-07-22T06:52:30.776Z,66.40
2018-07-22T06:55:00.052Z,67.60
2018-07-22T06:57:29.436Z,65.40
2018-07-22T06:59:59.060Z,63.50
2018-07-22T07:02:28.565Z,64.40
2018-07-22T07:04:57.836Z,65.30
2018-07-22T07:07:27.098Z,64.20
2018-07-22T07:09:56.467Z,64.60
2018-07-22T07:12:25.728Z,61.60
2018-07-22T07:14:57.218Z,62.50
2018-07-22T07:17:26.541Z,60.30
2018-07-22T07:22:25.708Z,57.20
2018-07-22T07:24:55.011Z,59.30
2018-07-22T07:27:25.032Z,59.90
2018-07-22T07:29:54.940Z,59.90
2018-07-22T07:32:24.238Z,63.20
2018-07-22T07:34:53.484Z,61.50
2018-07-22T07:37:22.819Z,62.10
2018-07-22T07:39:52.678Z,63.30
2018-07-22T07:42:22.062Z,59.70
2018-07-22T07:44:51.322Z,61.40
2018-07-22T07:47:21.744Z,59.80
2018-07-22T07:49:52.418Z,59.30
2018-07-22T07:52:22.431Z,57.80
2018-07-22T07:54:51.647Z,57.30
2018-07-22T07:57:20.905Z,57.60
2018-07-22T07:59:54.831Z,56.50
2018-07-22T08:02:25.887Z,53.40
2018-07-22T08:04:55.561Z,52.80
2018-07-22T08:07:24.829Z,52.60
2018-07-22T08:09:54.225Z,50.80
2018-07-22T08:12:23.819Z,52.10
2018-07-22T08:14:53.735Z,48.40
2018-07-22T08:17:24.154Z,49.70
2018-07-22T08:19:54.423Z,47.30
2018-07-22T08:22:23.830Z,51.10
2018-07-22T08:24:53.102Z,48.50
2018-07-22T08:27:22.398Z,44.60
2018-07-22T08:29:52.042Z,46.80
2018-07-22T08:32:22.848Z,44.00
2018-07-22T08:34:52.100Z,44.60
2018-07-22T08:37:21.304Z,40.50
2018-07-22T08:39:52.374Z,40.00
2018-07-22T08:42:21.620Z,43.30
2018-07-22T08:44:50.875Z,43.60
2018-07-22T08:47:21.581Z,47.20
2018-07-22T08:49:54.882Z,47.50
2018-07-22T08:52:24.180Z,48.10
2018-07-22T08:54:53.519Z,47.80
2018-07-22T08:57:22.944Z,51.50
2018-07-22T08:59:52.760Z,49.80
2018-07-22T09:02:23.810Z,48.30
2018-07-22T09:04:53.564Z,43.80
2018-07-22T09:07:23.335Z,41.50
2018-07-22T09:09:52.786Z,42.80
2018-07-22T09:12:23.670Z,44.30
2018-07-22T09:14:53.016Z,42.90
2018-07-22T09:17:23.820Z,38.80
2018-07-22T09:19:53.403Z,40.20
2018-07-22T09:22:25.295Z,40.60
2018-07-22T09:24:55.580Z,42.50
2018-07-22T09:27:25.070Z,38.00
2018-07-22T09:29:58.186Z,40.10
2018-07-22T09:32:27.760Z,40.50
2018-07-22T09:34:58.057Z,37.60
2018-07-22T09:37:27.566Z,39.90
2018-07-22T09:39:57.636Z,39.80
2018-07-22T09:42:27.164Z,38.70
2018-07-22T09:44:58.547Z,44.00
2018-07-22T09:47:28.553Z,45.00
2018-07-22T09:49:59.417Z,45.20
2018-07-22T09:52:28.668Z,44.70
2018-07-22T09:54:58.025Z,43.40
2018-07-22T09:57:29.850Z,44.60
2018-07-22T10:00:03.793Z,38.40
2018-07-22T10:02:33.456Z,40.30
2018-07-22T10:05:02.910Z,38.80
2018-07-22T10:07:32.464Z,37.20
2018-07-22T10:10:02.741Z,40.00
2018-07-22T10:12:32.398Z,37.70
2018-07-22T10:15:02.026Z,33.10
2018-07-22T10:17:32.207Z,31.20
2018-07-22T10:20:01.869Z,32.30
2018-07-22T10:22:32.595Z,30.00
2018-07-22T10:25:02.036Z,29.40
2018-07-22T10:27:31.367Z,29.60
2018-07-22T10:30:01.577Z,30.00
2018-07-22T10:32:30.889Z,32.10
2018-07-22T10:35:00.183Z,32.70
2018-07-22T10:37:29.915Z,30.70
2018-07-22T10:39:59.503Z,32.60
2018-07-22T10:42:28.802Z,30.80
2018-07-22T10:44:58.313Z,32.00
2018-07-22T10:47:27.609Z,30.00
2018-07-22T10:49:56.931Z,31.30
2018-07-22T10:52:26.348Z,32.50
2018-07-22T10:54:56.480Z,29.10
2018-07-22T10:57:26.071Z,28.20
2018-07-22T10:59:55.345Z,28.70
2018-07-22T11:02:25.510Z,28.00
2018-07-22T11:04:54.787Z,28.50
2018-07-22T11:07:24.188Z,26.20
2018-07-22T11:09:54.108Z,26.90
2018-07-22T11:12:23.408Z,30.00
2018-07-22T11:14:52.800Z,31.30
2018-07-22T11:17:24.052Z,34.10
2018-07-22T11:19:54.522Z,32.20
2018-07-22T11:22:23.849Z,32.90
2018-07-22T11:24:53.148Z,33.50
2018-07-22T11:27:22.512Z,34.50
2018-07-22T11:29:51.946Z,35.00
2018-07-22T11:32:23.418Z,34.80
2018-07-22T11:34:53.080Z,34.20
2018-07-22T11:37:22.735Z,33.30
2018-07-22T11:39:52.677Z,35.30
2018-07-22T11:42:22.216Z,35.40
2018-07-22T11:44:51.924Z,36.70
2018-07-22T11:47:24.045Z,36.80
2018-07-22T11:49:54.796Z,36.50
2018-07-22T11:52:24.495Z,39.20
2018-07-22T11:54:54.226Z,40.00
2018-07-22T11:57:23.529Z,40.70
2018-07-22T11:59:53.406Z,39.50
2018-07-22T12:02:26.376Z,40.60
2018-07-22T12:04:55.775Z,43.20
2018-07-22T12:07:25.334Z,47.50
2018-07-22T12:09:54.787Z,50.50
2018-07-22T12:12:24.093Z,51.70
2018-07-22T12:14:53.432Z,47.50
2018-07-22T12:17:25.738Z,45.80
2018-07-22T12:19:58.740Z,45.90
2018-07-22T12:22:31.793Z,43.60
2018-07-22T12:25:01.948Z,50.10
2018-07-22T12:27:31.286Z,48.20
2018-07-22T12:30:00.918Z,53.40
2018-07-22T12:32:30.668Z,51.00
2018-07-22T12:34:59.960Z,53.80
2018-07-22T12:40:03.915Z,54.70
2018-07-22T12:42:34.267Z,56.50
2018-07-22T12:45:03.954Z,56.40
2018-07-22T12:47:33.222Z,56.70
2018-07-22T12:50:02.975Z,55.80
2018-07-22T12:52:32.215Z,54.00
2018-07-22T12:55:01.576Z,55.10
2018-07-22T12:57:30.803Z,56.90
2018-07-22T13:00:05.148Z,56.90
2018-07-22T13:02:51.485Z,53.90
2018-07-22T13:05:22.570Z,47.90
2018-07-22T13:07:51.991Z,49.40
2018-07-22T13:10:21.334Z,47.50
2018-07-22T13:12:50.584Z,46.00
2018-07-22T13:15:19.881Z,48.00
2018-07-22T13:17:49.124Z,53.30
2018-07-22T13:20:18.436Z,52.60
2018-07-22T13:22:47.695Z,48.60
2018-07-22T13:25:16.907Z,50.80
2018-07-22T13:27:46.140Z,59.20
2018-07-22T13:30:17.819Z,54.10
2018-07-22T13:32:47.070Z,57.50
2018-07-22T13:35:16.477Z,56.10
2018-07-22T13:37:45.662Z,53.60
2018-07-22T13:40:18.322Z,60.10
2018-07-22T13:42:47.670Z,60.80
2018-07-22T13:45:16.957Z,63.00
2018-07-22T13:47:46.191Z,55.90
2018-07-22T13:50:15.614Z,60.10
2018-07-22T13:52:45.653Z,64.30
2018-07-22T13:55:15.589Z,64.30
2018-07-22T13:57:44.814Z,57.20
2018-07-22T14:00:14.262Z,64.90
2018-07-22T14:02:43.483Z,62.50
2018-07-22T14:05:12.688Z,64.40
2018-07-22T14:07:41.893Z,67.00
2018-07-22T14:10:12.669Z,66.10
2018-07-22T14:12:41.909Z,66.40
2018-07-22T14:15:11.100Z,66.70
2018-07-22T14:17:40.403Z,74.90
2018-07-22T14:20:13.138Z,71.30
2018-07-22T14:22:42.403Z,73.10
2018-07-22T14:25:11.693Z,67.10
2018-07-22T14:27:40.910Z,69.60
2018-07-22T14:30:10.329Z,72.70
2018-07-22T14:32:39.995Z,83.70
2018-07-22T14:35:13.932Z,91.80
2018-07-22T14:37:43.189Z,81.40
2018-07-22T14:40:12.477Z,91.40
2018-07-22T14:42:41.696Z,95.30
2018-07-22T14:45:11.005Z,97.80
2018-07-22T14:47:40.274Z,99.90
2018-07-22T14:50:10.461Z,99.90
2018-07-22T14:52:39.744Z,99.90
2018-07-22T14:55:09.835Z,99.90
2018-07-22T14:57:39.464Z,99.90
2018-07-22T15:00:09.116Z,99.90
2018-07-22T15:02:39.835Z,99.90
2018-07-22T15:05:09.113Z,99.90
2018-07-22T15:07:38.396Z,99.90
2018-07-22T15:10:08.776Z,99.90
2018-07-22T15:12:38.082Z,99.90
2018-07-22T15:15:07.376Z,99.90
2018-07-22T15:17:36.738Z,99.90
2018-07-22T15:20:06.797Z,99.90
2018-07-22T15:22:36.080Z,99.60
2018-07-22T15:25:06.160Z,98.50
2018-07-22T15:27:36.154Z,98.40
2018-07-22T15:30:06.017Z,98.10
2018-07-22T15:32:35.239Z,99.60
2018-07-22T15:35:06.011Z,97.60
2018-07-22T15:37:35.364Z,95.70
2018-07-22T15:40:05.296Z,97.60
2018-07-22T15:42:34.654Z,97.30
2018-07-22T15:47:35.203Z,96.10
2018-07-22T15:50:04.627Z,94.40
2018-07-22T15:52:33.930Z,93.70
2018-07-22T15:55:03.551Z,92.20
2018-07-22T15:57:32.766Z,93.40
2018-07-22T16:00:02.189Z,94.80
2018-07-22T16:02:31.554Z,96.10
2018-07-22T16:05:00.813Z,94.00
2018-07-22T16:09:59.107Z,94.40
2018-07-22T16:12:28.320Z,94.80
2018-07-22T16:14:57.719Z,96.80
2018-07-22T16:17:29.548Z,98.10
2018-07-22T16:19:59.918Z,98.50
2018-07-22T16:22:29.827Z,96.90
2018-07-22T16:24:59.640Z,95.50
2018-07-22T16:27:29.804Z,95.20
2018-07-22T16:29:59.253Z,97.70
2018-07-22T16:32:30.127Z,97.20
2018-07-22T16:34:59.459Z,98.10
2018-07-22T16:37:28.716Z,99.00
2018-07-22T16:39:58.262Z,98.60
2018-07-22T16:42:27.538Z,98.80
2018-07-22T16:44:56.898Z,98.60
2018-07-22T16:47:28.219Z,96.90
2018-07-22T16:50:01.900Z,98.10
2018-07-22T16:52:31.986Z,96.10
2018-07-22T16:55:04.321Z,98.20
2018-07-22T16:57:39.911Z,99.00
2018-07-22T17:00:12.212Z,98.40
2018-07-22T17:02:41.442Z,98.80
2018-07-22T17:05:10.685Z,98.90
2018-07-22T17:07:39.937Z,99.40
2018-07-22T17:10:09.480Z,99.00
2018-07-22T17:12:39.562Z,99.10
2018-07-22T17:15:08.854Z,99.50
2018-07-22T17:17:38.203Z,99.30
2018-07-22T17:20:07.735Z,98.00
2018-07-22T17:22:37.381Z,97.70
2018-07-22T17:25:06.738Z,98.00
2018-07-22T17:27:36.555Z,98.00
2018-07-22T17:30:11.353Z,93.80
2018-07-22T17:32:41.612Z,95.60
2018-07-22T17:35:12.503Z,96.20
2018-07-22T17:37:41.991Z,97.40
2018-07-22T17:40:13.865Z,93.90
2018-07-22T17:42:44.654Z,97.30
2018-07-22T17:45:13.955Z,92.00
2018-07-22T17:47:43.303Z,95.20
2018-07-22T17:52:44.875Z,96.80
2018-07-22T17:55:14.192Z,90.90
2018-07-22T17:57:43.622Z,93.50
2018-07-22T18:00:14.122Z,93.80
2018-07-22T18:02:49.332Z,95.80
2018-07-22T18:05:18.660Z,96.60
2018-07-22T18:07:50.191Z,97.10
2018-07-22T18:10:19.414Z,99.40
2018-07-22T18:12:48.853Z,98.60
2018-07-22T18:15:18.144Z,99.80
2018-07-22T18:17:48.339Z,98.90
2018-07-22T18:20:19.475Z,99.20
2018-07-22T18:22:48.752Z,98.40
2018-07-22T18:25:18.010Z,98.80
2018-07-22T18:27:47.504Z,97.20
2018-07-22T18:30:17.280Z,99.20
2018-07-22T18:32:46.567Z,98.10
2018-07-22T18:35:15.858Z,99.30
2018-07-22T18:37:45.654Z,99.30
2018-07-22T18:40:17.247Z,99.00
2018-07-22T18:42:47.261Z,98.40
2018-07-22T18:45:17.186Z,99.90
2018-07-22T18:47:46.747Z,97.70
2018-07-22T18:50:16.378Z,98.10
2018-07-22T18:52:45.762Z,98.00
2018-07-22T18:55:16.159Z,98.20
2018-07-22T18:57:45.903Z,99.10
2018-07-22T19:00:15.717Z,99.40
2018-07-22T19:02:45.402Z,99.90
2018-07-22T19:05:15.768Z,99.10
2018-07-22T19:07:46.481Z,99.60
2018-07-22T19:10:16.763Z,99.20
2018-07-22T19:12:46.526Z,99.70
2018-07-22T19:15:16.162Z,98.60
2018-07-22T19:17:46.108Z,97.70
2018-07-22T19:20:19.808Z,96.20
2018-07-22T19:22:51.820Z,96.60
2018-07-22T19:25:21.569Z,98.60
2018-07-22T19:27:51.428Z,99.90
2018-07-22T19:30:22.293Z,99.90
2018-07-22T19:32:52.152Z,99.90
2018-07-22T19:35:22.095Z,99.50
2018-07-22T19:37:51.849Z,99.90
2018-07-22T19:40:21.908Z,99.90
2018-07-22T19:45:23.154Z,99.90
2018-07-22T19:47:53.275Z,99.90
2018-07-22T19:50:23.940Z,99.90
2018-07-22T19:52:53.942Z,99.90
2018-07-22T19:55:24.416Z,99.90
2018-07-22T19:57:54.171Z,99.90
2018-07-22T20:00:24.663Z,99.90
2018-07-22T20:02:55.893Z,99.90
2018-07-22T20:05:26.238Z,99.90
2018-07-22T20:07:56.432Z,99.90
2018-07-22T20:10:26.285Z,99.90
2018-07-22T20:12:57.354Z,99.90
2018-07-22T20:15:26.905Z,99.90
2018-07-22T20:17:56.456Z,99.90
2018-07-22T20:20:29.398Z,99.90
2018-07-22T20:22:59.466Z,99.90
2018-07-22T20:25:30.638Z,99.90
2018-07-22T20:28:00.560Z,99.90
2018-07-22T20:30:31.150Z,99.90
2018-07-22T20:33:00.407Z,99.90
2018-07-22T20:35:30.317Z,99.90
2018-07-22T20:37:59.867Z,99.90
2018-07-22T20:40:36.496Z,99.90
2018-07-22T20:43:07.283Z,99.90
2018-07-22T20:45:43.696Z,99.90
2018-07-22T20:48:14.900Z,99.90
2018-07-22T20:50:44.270Z,99.90
2018-07-22T20:53:13.996Z,99.90
2018-07-22T20:55:43.350Z,99.90
2018-07-22T20:58:13.875Z,99.90
2018-07-22T21:00:45.275Z,99.90
2018-07-22T21:03:14.521Z,99.90
2018-07-22T21:05:43.777Z,99.90
2018-07-22T21:08:13.036Z,99.90
2018-07-22T21:10:42.404Z,99.90
2018-07-22T21:13:22.479Z,99.90
2018-07-22T21:15:52.213Z,99.90
2018-07-22T21:18:21.468Z,99.90
2018-07-22T21:20:51.418Z,99.90
2018-07-22T21:23:21.109Z,99.90
2018-07-22T21:25:50.693Z,99.90
2018-07-22T21:28:19.908Z,99.90
2018-07-22T21:30:49.149Z,99.90
2018-07-22T21:33:20.099Z,99.90
2018-07-22T21:35:49.334Z,99.90
2018-07-22T21:38:18.781Z,99.90
2018-07-22T21:40:48.407Z,99.90
2018-07-22T21:43:17.978Z,99.90
2018-07-22T21:45:47.401Z,99.90
2018-07-22T21:48:17.320Z,99.90
2018-07-22T21:50:46.618Z,99.90
2018-07-22T21:53:16.150Z,99.90
2018-07-22T21:55:45.958Z,99.90
2018-07-22T21:58:15.180Z,99.90
2018-07-22T22:00:45.384Z,99.90
2018-07-22T22:03:14.660Z,99.90
2018-07-22T22:05:43.906Z,99.90
2018-07-22T22:08:14.338Z,99.90
2018-07-22T22:10:43.607Z,99.90
2018-07-22T22:13:13.095Z,99.90
2018-07-22T22:15:42.353Z,99.90
2018-07-22T22:18:11.583Z,99.90
2018-07-22T22:20:42.054Z,99.90
2018-07-22T22:23:11.292Z,99.90
2018-07-22T22:25:40.565Z,99.90
2018-07-22T22:28:10.014Z,99.90
2018-07-22T22:30:39.581Z,99.90
2018-07-22T22:33:08.819Z,99.90
2018-07-22T22:35:38.850Z,99.90
2018-07-22T22:38:08.125Z,99.90
2018-07-22T22:43:06.352Z,99.70
2018-07-22T22:45:35.717Z,99.70
2018-07-22T22:48:04.903Z,99.90
2018-07-22T22:50:35.650Z,99.90
2018-07-22T22:55:33.619Z,99.70
2018-07-22T22:58:13.986Z,99.90
2018-07-22T23:00:43.198Z,99.90
2018-07-22T23:03:12.411Z,99.90
2018-07-22T23:05:41.666Z,99.90
2018-07-22T23:08:10.885Z,99.90
2018-07-22T23:10:40.134Z,99.90
2018-07-22T23:13:09.451Z,99.90
2018-07-22T23:15:38.701Z,99.90
2018-07-22T23:18:07.960Z,99.90
2018-07-22T23:20:37.861Z,99.90
2018-07-22T23:23:07.099Z,99.90
2018-07-22T23:25:37.948Z,99.90
2018-07-22T23:28:07.218Z,99.90
2018-07-22T23:30:37.721Z,99.90
2018-07-22T23:33:06.946Z,99.90
2018-07-22T23:35:36.147Z,99.90
2018-07-22T23:38:05.554Z,99.90
2018-07-22T23:40:36.109Z,99.90
2018-07-22T23:43:06.123Z,99.90
2018-07-22T23:45:35.312Z,99.90
2018-07-22T23:48:05.156Z,99.90
2018-07-22T23:50:35.794Z,99.90
2018-07-22T23:53:05.061Z,99.90
2018-07-22T23:55:34.849Z,99.90
2018-07-22T23:58:04.064Z,99.90
